Time;durP1;ratioP1;P1;durP2;ratioP2;P2;SDS_P1;SDS_P2;PMS_P1;PMS_P2;Temp;Humidity;BMP_temperature;BMP_pressure;BME280_temperature;BME280_humidity;BME280_pressure;Samples;Min_cycle;Max_cycle;Signal;HPM_P1;HPM_P2
2021/03/27 00:02:58;;;;;;;7.50;6.80;;;12.80;80.00;;;;;;10536323;28;20200;-81
2021/03/27 00:08:23;;;;;;;7.20;6.60;;;12.80;80.90;;;;;;10541894;28;20246;-80
2021/03/27 00:13:31;;;;;;;7.23;6.50;;;12.90;81.00;;;;;;10541274;28;20734;-81
2021/03/27 00:18:42;;;;;;;7.03;6.37;;;13.00;81.30;;;;;;10540201;28;20654;-82
2021/03/27 00:23:51;;;;;;;6.20;5.70;;;13.00;81.20;;;;;;10547942;28;20184;-80
2021/03/27 00:28:57;;;;;;;5.63;5.03;;;13.00;80.50;;;;;;10538228;28;20323;-80
2021/03/27 00:34:07;;;;;;;5.70;5.20;;;13.00;80.70;;;;;;10538869;28;20204;-81
2021/03/27 00:39:14;;;;;;;5.37;4.97;;;13.00;81.00;;;;;;10540003;28;20218;-81
2021/03/27 00:44:20;;;;;;;6.43;5.63;;;13.00;82.10;;;;;;10539513;28;20349;-81
2021/03/27 00:49:26;;;;;;;5.57;5.07;;;13.00;82.40;;;;;;10537005;28;20590;-80
2021/03/27 00:54:32;;;;;;;5.40;5.00;;;13.00;83.10;;;;;;10524295;28;20679;-81
2021/03/27 00:59:55;;;;;;;6.17;5.33;;;12.90;83.20;;;;;;10538729;28;20573;-81
2021/03/27 01:05:06;;;;;;;4.90;4.50;;;12.90;83.60;;;;;;10572053;28;20199;-81
2021/03/27 01:10:32;;;;;;;5.67;5.20;;;12.90;82.90;;;;;;10584019;28;20226;-81
2021/03/27 01:15:52;;;;;;;6.30;5.23;;;12.90;83.50;;;;;;10586481;28;20206;-82
2021/03/27 01:20:59;;;;;;;5.60;5.10;;;12.80;84.80;;;;;;10584721;28;20219;-81
2021/03/27 01:26:05;;;;;;;5.00;4.60;;;12.70;85.80;;;;;;10583491;28;20226;-82
2021/03/27 01:31:16;;;;;;;5.90;5.20;;;12.70;86.70;;;;;;10586115;28;20217;-82
2021/03/27 01:36:22;;;;;;;5.30;4.80;;;12.60;87.30;;;;;;10584747;28;20199;-82
2021/03/27 01:41:33;;;;;;;6.93;5.07;;;12.60;88.00;;;;;;10584575;28;20210;-81
2021/03/27 01:46:58;;;;;;;5.60;4.83;;;12.50;89.20;;;;;;10567456;28;20195;-81
2021/03/27 01:52:24;;;;;;;8.00;6.00;;;12.40;90.10;;;;;;10586863;28;20706;-82
2021/03/27 01:57:32;;;;;;;6.30;5.70;;;12.30;91.90;;;;;;10585905;28;20219;-81
2021/03/27 02:02:39;;;;;;;7.60;6.47;;;12.00;93.10;;;;;;10581510;28;20209;-81
2021/03/27 02:07:49;;;;;;;6.90;6.30;;;11.80;94.30;;;;;;10615092;28;20222;-80
2021/03/27 02:12:57;;;;;;;6.40;5.80;;;11.70;95.70;;;;;;10584222;28;20282;-82
2021/03/27 02:18:03;;;;;;;7.20;6.50;;;11.50;96.10;;;;;;10524094;28;20607;-81
2021/03/27 02:23:15;;;;;;;6.80;6.20;;;11.50;97.00;;;;;;10537122;28;20687;-81
2021/03/27 02:28:38;;;;;;;7.27;6.67;;;11.40;97.70;;;;;;10552521;22;20227;-80
2021/03/27 02:33:48;;;;;;;8.30;7.60;;;11.30;98.30;;;;;;10540822;28;20267;-80
2021/03/27 02:39:00;;;;;;;8.77;8.07;;;11.30;99.10;;;;;;10543352;28;20241;-80
2021/03/27 02:44:07;;;;;;;9.83;8.23;;;11.20;99.90;;;;;;10522915;28;20196;-79
2021/03/27 02:49:27;;;;;;;10.20;7.93;;;11.20;99.90;;;;;;10522144;28;20248;-79
2021/03/27 02:54:38;;;;;;;11.47;10.50;;;11.10;99.90;;;;;;10542014;28;20195;-79
2021/03/27 02:59:47;;;;;;;9.80;9.20;;;10.90;99.90;;;;;;10540492;28;20306;-79
2021/03/27 03:04:58;;;;;;;10.70;10.00;;;10.80;99.90;;;;;;10538998;28;20219;-79
2021/03/27 03:10:18;;;;;;;8.83;8.23;;;10.70;99.90;;;;;;10533522;28;20224;-79
2021/03/27 03:15:30;;;;;;;8.20;7.60;;;10.50;99.90;;;;;;10530442;28;20192;-79
2021/03/27 03:20:42;;;;;;;6.00;5.50;;;10.50;99.90;;;;;;10524214;28;20523;-79
2021/03/27 03:25:50;;;;;;;5.60;5.20;;;10.50;99.90;;;;;;10529196;28;20196;-79
2021/03/27 03:31:01;;;;;;;6.53;5.47;;;10.40;99.90;;;;;;10524868;28;20221;-80
2021/03/27 03:36:08;;;;;;;6.07;5.47;;;10.50;99.90;;;;;;10531130;28;20192;-79
2021/03/27 03:41:16;;;;;;;5.57;5.07;;;10.60;99.90;;;;;;10539159;28;20272;-80
2021/03/27 03:46:32;;;;;;;5.10;4.70;;;10.70;99.90;;;;;;10529285;28;20283;-79
2021/03/27 03:51:52;;;;;;;6.17;5.67;;;10.90;99.90;;;;;;10540834;28;20254;-79
2021/03/27 03:57:03;;;;;;;3.57;2.40;;;10.90;99.90;;;;;;10529578;28;20200;-79
2021/03/27 04:02:14;;;;;;;2.70;2.47;;;10.70;99.90;;;;;;10511718;28;20291;-79
2021/03/27 04:07:21;;;;;;;2.80;2.60;;;10.40;99.90;;;;;;10533967;28;20198;-79
2021/03/27 04:12:30;;;;;;;2.47;2.37;;;10.20;99.90;;;;;;10510657;28;20252;-79
2021/03/27 04:17:42;;;;;;;2.50;2.40;;;10.00;99.90;;;;;;10527637;28;20227;-79
2021/03/27 04:22:47;;;;;;;1.80;1.80;;;10.00;99.90;;;;;;10529927;28;20707;-79
2021/03/27 04:27:55;;;;;;;1.70;1.60;;;9.80;99.90;;;;;;10536462;28;20216;-79
2021/03/27 04:33:13;;;;;;;1.93;1.83;;;9.70;99.90;;;;;;10537283;28;20200;-80
2021/03/27 04:38:23;;;;;;;1.80;1.70;;;9.60;99.90;;;;;;10547992;28;20651;-79
2021/03/27 04:43:30;;;;;;;1.13;1.13;;;9.60;99.90;;;;;;10533254;28;20766;-79
2021/03/27 04:48:39;;;;;;;1.40;1.30;;;9.50;99.90;;;;;;10547104;28;20212;-80
2021/03/27 04:53:47;;;;;;;2.00;1.63;;;9.50;99.90;;;;;;10547095;28;20199;-79
2021/03/27 04:58:53;;;;;;;1.60;1.50;;;9.50;99.90;;;;;;10544869;28;20208;-79
2021/03/27 05:04:03;;;;;;;1.70;1.60;;;9.50;99.90;;;;;;10531045;28;20196;-78
2021/03/27 05:09:29;;;;;;;1.30;1.20;;;9.60;99.90;;;;;;10546070;28;20310;-79
2021/03/27 05:15:01;;;;;;;1.10;1.10;;;9.60;99.90;;;;;;10542167;28;20207;-79
2021/03/27 05:20:10;;;;;;;1.20;1.10;;;9.50;99.30;;;;;;10515965;28;20226;-79
2021/03/27 05:25:38;;;;;;;1.30;1.20;;;9.50;99.90;;;;;;10544668;28;20188;-79
2021/03/27 05:30:48;;;;;;;1.10;0.97;;;9.50;99.30;;;;;;10547119;28;20224;-79
2021/03/27 05:35:57;;;;;;;1.30;1.20;;;9.50;99.40;;;;;;10546489;28;20248;-80
2021/03/27 05:41:32;;;;;;;1.30;1.20;;;9.60;99.20;;;;;;10545336;28;20676;-80
2021/03/27 05:47:07;;;;;;;1.07;0.97;;;9.60;99.30;;;;;;10544447;28;20196;-79
2021/03/27 05:52:40;;;;;;;1.10;0.90;;;9.70;97.60;;;;;;10541969;28;20220;-80
2021/03/27 05:58:01;;;;;;;2.40;1.03;;;9.60;97.60;;;;;;10546741;28;20207;-81
2021/03/27 06:03:41;;;;;;;1.00;1.00;;;9.70;97.90;;;;;;10542676;28;20203;-79
2021/03/27 06:09:14;;;;;;;0.93;0.93;;;9.70;97.00;;;;;;10508774;28;20296;-79
2021/03/27 06:14:39;;;;;;;0.97;0.97;;;9.70;96.40;;;;;;10522712;28;20200;-79
2021/03/27 06:20:16;;;;;;;1.13;1.07;;;9.50;94.90;;;;;;10525187;28;20287;-79
2021/03/27 06:26:02;;;;;;;1.00;1.00;;;9.60;95.00;;;;;;10522936;28;20188;-80
2021/03/27 06:31:27;;;;;;;1.20;1.20;;;9.60;94.50;;;;;;10467546;28;20376;-79
2021/03/27 06:36:57;;;;;;;1.40;1.30;;;9.60;93.80;;;;;;10534069;28;20395;-79
2021/03/27 06:42:22;;;;;;;1.40;1.30;;;9.60;94.80;;;;;;10541663;28;20221;-79
2021/03/27 06:47:35;;;;;;;1.60;1.50;;;9.40;94.90;;;;;;10541159;28;20195;-79
2021/03/27 06:53:05;;;;;;;1.30;1.20;;;9.40;94.30;;;;;;10519256;28;20311;-79
2021/03/27 06:58:57;;;;;;;2.30;1.30;;;9.40;94.20;;;;;;10541041;28;20219;-79
2021/03/27 07:04:35;;;;;;;1.43;1.20;;;9.40;93.90;;;;;;10544265;28;20198;-79
2021/03/27 07:10:07;;;;;;;1.33;1.23;;;9.40;92.80;;;;;;10551952;28;20268;-79
2021/03/27 07:15:48;;;;;;;1.30;1.20;;;9.30;90.70;;;;;;10501325;28;20192;-79
2021/03/27 07:21:14;;;;;;;1.17;0.90;;;9.50;90.10;;;;;;10548219;28;20750;-79
2021/03/27 07:26:46;;;;;;;1.47;1.37;;;9.80;91.00;;;;;;10533642;28;20196;-79
2021/03/27 07:31:53;;;;;;;1.70;1.20;;;10.10;87.20;;;;;;10505882;28;20227;-79
2021/03/27 07:37:34;;;;;;;1.63;1.53;;;10.10;84.10;;;;;;10559353;28;20294;-79
2021/03/27 07:43:23;;;;;;;1.30;1.20;;;9.90;84.80;;;;;;10558000;28;20192;-79
2021/03/27 07:49:04;;;;;;;2.13;1.30;;;9.80;81.40;;;;;;10466833;28;20288;-79
2021/03/27 07:54:40;;;;;;;1.30;1.20;;;9.70;87.50;;;;;;10533109;28;20283;-79
2021/03/27 08:00:05;;;;;;;1.40;1.27;;;9.70;85.90;;;;;;10550991;28;20242;-79
2021/03/27 08:05:40;;;;;;;1.20;1.10;;;9.90;83.50;;;;;;10549028;28;20203;-79
2021/03/27 08:11:04;;;;;;;2.73;1.60;;;10.10;80.10;;;;;;10520456;28;20260;-79
2021/03/27 08:16:48;;;;;;;2.30;1.43;;;10.30;80.30;;;;;;10550997;28;20566;-79
2021/03/27 08:21:56;;;;;;;2.30;1.20;;;10.50;81.60;;;;;;10496008;28;20223;-79
2021/03/27 08:27:36;;;;;;;1.30;1.10;;;10.70;79.20;;;;;;10532519;28;20204;-79
2021/03/27 08:33:18;;;;;;;1.20;1.10;;;10.80;80.20;;;;;;10522473;22;20232;-83
2021/03/27 08:38:37;;;;;;;1.00;0.90;;;10.80;77.10;;;;;;10474865;28;20346;-79
2021/03/27 08:44:29;;;;;;;1.93;1.13;;;11.00;72.40;;;;;;10482854;28;20193;-80
2021/03/27 08:50:08;;;;;;;1.43;1.30;;;11.10;71.60;;;;;;10470717;28;20235;-81
2021/03/27 08:55:29;;;;;;;1.53;1.00;;;11.20;67.20;;;;;;10468559;28;20668;-82
2021/03/27 09:01:02;;;;;;;3.17;1.40;;;11.20;68.40;;;;;;10487463;28;20220;-81
2021/03/27 09:06:39;;;;;;;2.90;1.30;;;11.20;63.40;;;;;;10472273;28;20205;-83
2021/03/27 09:12:10;;;;;;;1.63;1.53;;;11.20;62.80;;;;;;10488908;28;20594;-83
2021/03/27 09:17:35;;;;;;;1.20;1.10;;;11.30;61.50;;;;;;10482661;28;20200;-82
2021/03/27 09:23:22;;;;;;;1.20;1.00;;;11.50;59.50;;;;;;10473345;28;20224;-83
2021/03/27 09:28:34;;;;;;;1.40;1.30;;;11.60;60.70;;;;;;10499997;28;20295;-82
2021/03/27 09:33:41;;;;;;;2.57;1.60;;;11.80;60.20;;;;;;10495826;28;20193;-82
2021/03/27 09:38:52;;;;;;;2.00;1.90;;;12.10;60.40;;;;;;10488193;28;20250;-82
2021/03/27 09:44:29;;;;;;;1.20;1.20;;;12.30;58.50;;;;;;10517832;28;20257;-82
2021/03/27 09:49:49;;;;;;;1.57;1.20;;;12.40;61.90;;;;;;10498855;28;20246;-82
2021/03/27 09:55:01;;;;;;;1.27;1.10;;;12.70;57.60;;;;;;10485003;28;20204;-82
2021/03/27 10:00:14;;;;;;;1.23;1.13;;;13.00;58.00;;;;;;10494627;28;20276;-81
2021/03/27 10:05:36;;;;;;;1.17;1.07;;;13.40;56.80;;;;;;10476171;28;20230;-84
2021/03/27 10:10:49;;;;;;;1.40;1.30;;;13.50;56.00;;;;;;10488236;28;20318;-83
2021/03/27 10:15:56;;;;;;;1.17;1.07;;;13.40;52.80;;;;;;10516163;28;20207;-84
2021/03/27 10:21:09;;;;;;;1.90;1.10;;;13.00;53.10;;;;;;10498929;28;20601;-83
2021/03/27 10:26:27;;;;;;;0.80;0.80;;;12.70;53.40;;;;;;10502484;28;20201;-83
2021/03/27 10:31:42;;;;;;;1.10;0.97;;;12.50;52.50;;;;;;10488182;28;20603;-81
2021/03/27 10:36:51;;;;;;;1.53;1.37;;;12.30;53.50;;;;;;10499977;28;20283;-81
2021/03/27 10:42:38;;;;;;;1.10;1.00;;;12.30;52.90;;;;;;10490381;28;20291;-81
2021/03/27 10:47:47;;;;;;;2.20;1.53;;;12.50;52.50;;;;;;10483173;28;20210;-81
2021/03/27 10:53:10;;;;;;;0.90;0.90;;;12.70;54.70;;;;;;10478117;28;20220;-81
2021/03/27 10:58:39;;;;;;;1.30;1.20;;;12.80;52.90;;;;;;10486180;28;20216;-81
2021/03/27 11:04:18;;;;;;;2.27;1.40;;;12.90;52.80;;;;;;10491433;28;20238;-81
2021/03/27 11:10:14;;;;;;;1.60;1.50;;;12.90;53.90;;;;;;10487014;28;20228;-84
2021/03/27 11:15:55;;;;;;;1.50;1.40;;;12.90;51.50;;;;;;10473718;28;20196;-83
2021/03/27 11:21:18;;;;;;;2.60;1.53;;;12.70;53.00;;;;;;10489584;28;20242;-83
2021/03/27 11:26:45;;;;;;;1.17;1.07;;;12.50;52.40;;;;;;10495067;28;20291;-80
2021/03/27 11:31:51;;;;;;;2.57;1.47;;;12.30;53.10;;;;;;10489555;28;20285;-83
2021/03/27 11:37:03;;;;;;;1.67;1.50;;;12.40;55.30;;;;;;10491820;28;20668;-79
2021/03/27 11:42:16;;;;;;;1.40;1.17;;;12.60;53.60;;;;;;10487992;28;20265;-82
2021/03/27 11:47:55;;;;;;;1.50;1.40;;;12.70;53.70;;;;;;10479957;28;20255;-82
2021/03/27 11:53:09;;;;;;;2.57;1.40;;;12.60;53.50;;;;;;10494505;28;20216;-83
2021/03/27 11:58:22;;;;;;;1.20;1.10;;;12.50;53.10;;;;;;10477741;28;20208;-83
2021/03/27 12:03:38;;;;;;;2.50;1.37;;;12.50;53.20;;;;;;10481069;28;20680;-80
2021/03/27 12:08:48;;;;;;;1.30;1.20;;;12.50;54.40;;;;;;10474207;28;20258;-82
2021/03/27 12:13:58;;;;;;;2.77;1.53;;;12.50;53.30;;;;;;10467723;28;20204;-83
2021/03/27 12:19:20;;;;;;;3.87;1.30;;;12.40;53.40;;;;;;10475225;28;20220;-83
2021/03/27 12:24:52;;;;;;;3.60;1.20;;;12.40;54.00;;;;;;10510004;28;20211;-82
2021/03/27 12:30:14;;;;;;;1.40;1.10;;;12.50;53.70;;;;;;10491284;28;20232;-78
2021/03/27 12:35:27;;;;;;;1.90;1.37;;;12.50;53.50;;;;;;10493735;28;20621;-80
2021/03/27 12:40:34;;;;;;;1.50;1.40;;;12.40;53.00;;;;;;10492105;28;20254;-79
2021/03/27 12:45:40;;;;;;;1.27;1.17;;;12.40;53.10;;;;;;10495225;28;20199;-80
2021/03/27 12:50:59;;;;;;;1.73;1.40;;;12.50;52.40;;;;;;10504412;28;20642;-80
2021/03/27 12:56:24;;;;;;;1.50;1.40;;;12.50;52.20;;;;;;10491066;28;20201;-81
2021/03/27 13:01:39;;;;;;;2.00;1.77;;;12.60;53.90;;;;;;10487948;28;20217;-81
2021/03/27 13:06:59;;;;;;;2.60;1.27;;;12.60;51.80;;;;;;10498274;28;20204;-79
2021/03/27 13:12:09;;;;;;;1.60;1.50;;;12.60;49.70;;;;;;10482978;28;20703;-80
2021/03/27 13:17:18;;;;;;;1.80;1.30;;;12.70;50.50;;;;;;10500209;28;20181;-80
2021/03/27 13:22:25;;;;;;;3.23;1.47;;;12.60;51.30;;;;;;10490906;28;20223;-80
2021/03/27 13:27:36;;;;;;;9.17;2.40;;;12.60;50.40;;;;;;10495183;28;20253;-80
2021/03/27 13:32:40;;;;;;;3.90;2.30;;;12.70;49.70;;;;;;10483404;28;20362;-81
2021/03/27 13:37:50;;;;;;;4.13;3.10;;;12.90;50.40;;;;;;10490869;28;20208;-79
2021/03/27 13:43:07;;;;;;;1.63;1.40;;;13.10;51.10;;;;;;10491855;28;20258;-81
2021/03/27 13:48:32;;;;;;;1.87;1.40;;;13.40;50.90;;;;;;10493983;28;20293;-79
2021/03/27 13:53:43;;;;;;;3.53;1.80;;;13.50;49.70;;;;;;10466188;28;20235;-81
2021/03/27 13:59:07;;;;;;;1.60;1.43;;;13.50;49.60;;;;;;10456035;28;20224;-81
2021/03/27 14:04:15;;;;;;;3.07;1.77;;;13.30;50.20;;;;;;10489065;28;20605;-80
2021/03/27 14:09:39;;;;;;;2.40;1.30;;;13.10;49.30;;;;;;10487540;28;20216;-80
2021/03/27 14:15:14;;;;;;;2.67;1.63;;;12.80;50.30;;;;;;10483825;28;20662;-80
2021/03/27 14:20:30;;;;;;;3.20;1.53;;;12.80;50.00;;;;;;10457535;28;20216;-78
2021/03/27 14:25:48;;;;;;;2.03;1.50;;;12.80;49.80;;;;;;10494155;28;20684;-80
2021/03/27 14:31:09;;;;;;;5.13;1.80;;;12.80;48.80;;;;;;10510515;28;20235;-79
2021/03/27 14:36:15;;;;;;;1.70;1.30;;;12.70;49.30;;;;;;10476278;28;20634;-78
2021/03/27 14:41:25;;;;;;;3.00;1.50;;;12.70;50.40;;;;;;10476123;28;20269;-79
2021/03/27 14:46:51;;;;;;;2.13;1.80;;;12.60;50.50;;;;;;10483065;28;20224;-76
2021/03/27 14:52:01;;;;;;;2.23;1.50;;;12.60;50.50;;;;;;10475363;28;20256;-81
2021/03/27 14:57:12;;;;;;;4.03;1.80;;;12.60;51.70;;;;;;10475685;28;20288;-77
2021/03/27 15:02:24;;;;;;;4.00;2.37;;;12.60;50.00;;;;;;10494848;28;20251;-78
2021/03/27 15:07:31;;;;;;;2.23;1.40;;;12.70;50.90;;;;;;10491361;28;20205;-78
2021/03/27 15:12:38;;;;;;;3.27;2.27;;;12.70;51.30;;;;;;10487683;28;20358;-78
2021/03/27 15:17:50;;;;;;;4.37;2.00;;;12.80;52.00;;;;;;10489090;28;20197;-78
2021/03/27 15:22:58;;;;;;;2.03;1.17;;;12.90;51.30;;;;;;10487844;28;20212;-77
2021/03/27 15:28:17;;;;;;;2.00;1.37;;;13.00;52.00;;;;;;10488137;28;20197;-78
2021/03/27 15:33:27;;;;;;;1.97;1.47;;;13.10;53.60;;;;;;10484974;28;20592;-78
2021/03/27 15:38:44;;;;;;;2.60;1.30;;;13.10;50.80;;;;;;10485541;28;20254;-77
2021/03/27 15:44:04;;;;;;;1.40;1.30;;;12.90;49.90;;;;;;10485593;28;20204;-77
2021/03/27 15:49:20;;;;;;;2.20;1.47;;;12.80;50.30;;;;;;10481237;28;20289;-78
2021/03/27 15:54:45;;;;;;;4.60;2.20;;;12.80;49.80;;;;;;10494865;28;20203;-78
2021/03/27 15:59:59;;;;;;;2.10;1.40;;;12.70;51.60;;;;;;10493329;28;20220;-79
2021/03/27 16:05:14;;;;;;;4.23;1.40;;;12.70;51.00;;;;;;10465006;28;20205;-81
2021/03/27 16:10:23;;;;;;;2.13;1.93;;;12.60;51.70;;;;;;10482457;28;20617;-77
2021/03/27 16:15:40;;;;;;;2.20;1.50;;;12.60;51.80;;;;;;10497539;28;20299;-77
2021/03/27 16:20:44;;;;;;;2.33;1.73;;;12.60;51.60;;;;;;10479508;28;20219;-80
2021/03/27 16:26:03;;;;;;;3.00;1.73;;;12.60;50.70;;;;;;10489793;28;20196;-78
2021/03/27 16:31:36;;;;;;;2.73;1.40;;;12.50;52.10;;;;;;10510961;28;20228;-78
2021/03/27 16:36:52;;;;;;;2.13;1.93;;;12.30;51.90;;;;;;10512367;28;20227;-80
2021/03/27 16:42:05;;;;;;;2.63;1.60;;;12.30;51.40;;;;;;10492393;28;20246;-77
2021/03/27 16:47:16;;;;;;;3.83;1.70;;;12.20;52.20;;;;;;10505483;28;20205;-78
2021/03/27 16:52:26;;;;;;;3.13;1.50;;;12.30;53.20;;;;;;10489731;28;20656;-81
2021/03/27 16:57:58;;;;;;;2.37;1.47;;;12.30;52.70;;;;;;10496886;28;20662;-78
2021/03/27 17:03:12;;;;;;;1.83;1.50;;;12.30;52.70;;;;;;10493913;28;20196;-78
2021/03/27 17:08:30;;;;;;;2.13;1.63;;;12.30;52.20;;;;;;10481171;28;20273;-78
2021/03/27 17:13:38;;;;;;;2.10;1.77;;;12.30;53.20;;;;;;10492866;28;20224;-78
2021/03/27 17:19:14;;;;;;;2.53;1.57;;;12.20;53.00;;;;;;10492911;28;20269;-78
2021/03/27 17:24:21;;;;;;;3.80;2.27;;;12.20;52.50;;;;;;10491993;28;20573;-79
2021/03/27 17:29:49;;;;;;;2.07;1.80;;;12.10;52.90;;;;;;10476368;28;20578;-81
2021/03/27 17:35:03;;;;;;;3.77;2.20;;;12.10;51.60;;;;;;10477045;28;20668;-79
2021/03/27 17:40:31;;;;;;;2.33;2.00;;;12.00;52.60;;;;;;10466507;28;20248;-78
2021/03/27 17:45:41;;;;;;;1.90;1.53;;;12.00;53.50;;;;;;10486651;28;20247;-80
2021/03/27 17:50:54;;;;;;;3.67;2.43;;;12.00;52.80;;;;;;10481251;28;20207;-80
2021/03/27 18:09:04;;;;;;;4.13;1.87;;;11.60;51.50;;;;;;10461879;28;20212;-80
2021/03/27 18:14:23;;;;;;;2.20;1.80;;;11.50;52.00;;;;;;10498569;28;20204;-78
2021/03/27 18:19:34;;;;;;;2.03;1.73;;;11.50;53.20;;;;;;10488445;28;20734;-80
2021/03/27 18:24:40;;;;;;;3.73;1.70;;;11.50;53.90;;;;;;10503949;28;20210;-80
2021/03/27 18:29:46;;;;;;;3.57;1.97;;;11.50;53.20;;;;;;10507176;28;20298;-80
2021/03/27 18:34:50;;;;;;;5.17;2.03;;;11.50;53.70;;;;;;10499214;28;20254;-80
2021/03/27 18:40:04;;;;;;;4.37;2.30;;;11.60;53.00;;;;;;10499456;28;20213;-79
2021/03/27 18:45:09;;;;;;;4.93;2.20;;;11.50;52.80;;;;;;10478872;28;20208;-81
2021/03/27 18:50:30;;;;;;;5.40;2.03;;;11.60;53.70;;;;;;10490553;28;20703;-81
2021/03/27 18:55:36;;;;;;;4.03;2.03;;;11.50;54.10;;;;;;10490598;28;20195;-80
2021/03/27 19:00:49;;;;;;;2.00;1.77;;;11.50;53.10;;;;;;10481830;28;20228;-79
2021/03/27 19:06:06;;;;;;;2.70;1.90;;;11.50;53.60;;;;;;10494643;28;20223;-79
2021/03/27 19:11:20;;;;;;;4.80;1.60;;;11.50;53.20;;;;;;10520855;28;20207;-79
2021/03/27 19:16:27;;;;;;;5.83;2.10;;;11.50;53.30;;;;;;10499370;28;20627;-79
2021/03/27 19:21:35;;;;;;;7.30;2.00;;;11.50;53.40;;;;;;10505478;28;20615;-80
2021/03/27 19:26:48;;;;;;;3.43;1.50;;;11.50;53.90;;;;;;10521780;28;20208;-78
2021/03/27 19:32:02;;;;;;;3.10;1.90;;;11.40;54.10;;;;;;10526726;28;20224;-78
2021/03/27 19:37:08;;;;;;;2.80;2.37;;;11.50;55.10;;;;;;10533399;28;20228;-77
2021/03/27 19:42:20;;;;;;;3.53;1.90;;;11.50;55.00;;;;;;10515125;28;20251;-78
2021/03/27 19:47:32;;;;;;;4.03;1.87;;;11.50;55.20;;;;;;10494908;28;20201;-77
2021/03/27 19:52:40;;;;;;;5.00;2.57;;;11.50;55.40;;;;;;10490184;28;20422;-78
2021/03/27 19:58:02;;;;;;;3.80;1.93;;;11.50;54.90;;;;;;10508563;28;20192;-78
2021/03/27 20:03:18;;;;;;;2.90;2.10;;;11.50;55.30;;;;;;10498175;28;20208;-78
2021/03/27 20:08:26;;;;;;;3.20;2.27;;;11.50;54.70;;;;;;10522364;28;20687;-79
2021/03/27 20:13:42;;;;;;;3.20;2.00;;;11.40;55.90;;;;;;10529952;28;20227;-78
2021/03/27 20:18:52;;;;;;;3.53;2.20;;;11.40;55.60;;;;;;10520020;28;20303;-78
2021/03/27 20:24:19;;;;;;;3.47;1.90;;;11.40;55.40;;;;;;10515963;28;20205;-78
2021/03/27 20:29:32;;;;;;;2.37;2.10;;;11.50;56.40;;;;;;10513605;28;20244;-79
2021/03/27 20:34:48;;;;;;;3.57;2.60;;;11.50;56.80;;;;;;10522734;22;20251;-82
2021/03/27 20:40:02;;;;;;;5.77;2.50;;;11.50;56.30;;;;;;10534006;28;20203;-79
2021/03/27 20:45:32;;;;;;;7.20;2.70;;;11.40;55.70;;;;;;10524928;28;20251;-79
2021/03/27 20:50:43;;;;;;;6.73;2.67;;;11.40;56.30;;;;;;10511757;28;20659;-79
2021/03/27 20:55:52;;;;;;;2.97;1.87;;;11.40;56.40;;;;;;10512369;28;20243;-79
2021/03/27 21:00:57;;;;;;;3.03;2.00;;;11.40;56.80;;;;;;10512801;28;20216;-79
2021/03/27 21:06:07;;;;;;;3.90;2.10;;;11.40;56.30;;;;;;10497508;28;20314;-79
2021/03/27 21:11:12;;;;;;;2.47;1.90;;;11.30;55.40;;;;;;10491690;28;20224;-80
2021/03/27 21:16:30;;;;;;;6.07;2.30;;;11.30;56.00;;;;;;10510150;28;20230;-81
2021/03/27 21:21:48;;;;;;;3.83;2.80;;;11.30;56.00;;;;;;10513285;28;20200;-80
2021/03/27 21:26:57;;;;;;;4.00;2.50;;;11.30;55.90;;;;;;10513605;28;20298;-80
2021/03/27 21:32:17;;;;;;;4.37;2.53;;;11.30;55.60;;;;;;10523439;28;20488;-80
2021/03/27 21:37:29;;;;;;;3.03;2.00;;;11.20;56.60;;;;;;10526160;28;20237;-81
2021/03/27 21:42:38;;;;;;;2.57;2.13;;;11.20;56.00;;;;;;10520203;28;20310;-79
2021/03/27 21:48:03;;;;;;;3.00;2.00;;;11.20;55.40;;;;;;10501535;28;20200;-79
2021/03/27 21:53:28;;;;;;;10.47;3.03;;;11.20;56.70;;;;;;10509470;28;20237;-78
2021/03/27 21:58:49;;;;;;;5.83;4.00;;;11.20;56.70;;;;;;10504432;28;20283;-77
2021/03/27 22:03:57;;;;;;;3.50;2.83;;;11.20;56.40;;;;;;10514150;28;20227;-77
2021/03/27 22:09:07;;;;;;;5.47;2.70;;;11.10;56.60;;;;;;10510187;28;20671;-78
2021/03/27 22:14:32;;;;;;;3.70;2.70;;;11.10;56.10;;;;;;10518994;28;20215;-77
2021/03/27 22:19:59;;;;;;;5.57;2.33;;;11.10;55.60;;;;;;10517776;28;20196;-77
2021/03/27 22:25:24;;;;;;;5.93;2.30;;;11.10;55.90;;;;;;10528529;28;20219;-78
2021/03/27 22:30:31;;;;;;;7.20;2.63;;;11.10;56.60;;;;;;10511635;28;20224;-76
2021/03/27 22:36:08;;;;;;;4.03;2.13;;;11.10;56.50;;;;;;10528998;28;20236;-76
2021/03/27 22:41:22;;;;;;;3.73;1.80;;;11.00;56.20;;;;;;10490081;28;20197;-77
2021/03/27 22:46:39;;;;;;;3.67;2.30;;;11.00;57.20;;;;;;10519541;28;20226;-76
2021/03/27 22:51:47;;;;;;;3.60;2.03;;;10.90;57.00;;;;;;10527657;28;20579;-76
2021/03/27 22:56:57;;;;;;;4.90;2.70;;;10.90;57.20;;;;;;10508936;28;20762;-78
2021/03/27 23:02:19;;;;;;;3.57;2.50;;;10.80;57.10;;;;;;10517518;28;20631;-78
2021/03/27 23:07:35;;;;;;;3.17;2.20;;;10.70;57.80;;;;;;10506885;28;20192;-77
2021/03/27 23:12:41;;;;;;;5.00;2.43;;;10.70;58.30;;;;;;10477075;28;20231;-76
2021/03/27 23:17:46;;;;;;;7.67;3.50;;;10.60;58.60;;;;;;10505054;28;20261;-78
2021/03/27 23:22:58;;;;;;;4.50;3.10;;;10.60;59.00;;;;;;10506798;28;20248;-77
2021/03/27 23:28:04;;;;;;;2.97;2.77;;;10.50;59.30;;;;;;10526673;28;20301;-76
2021/03/27 23:33:25;;;;;;;5.70;3.10;;;10.40;59.70;;;;;;10515089;28;20307;-77
2021/03/27 23:38:40;;;;;;;4.23;3.23;;;10.20;60.50;;;;;;10527167;28;20200;-77
2021/03/27 23:43:58;;;;;;;7.33;3.80;;;10.00;60.90;;;;;;10530006;28;20349;-77
2021/03/27 23:49:10;;;;;;;3.17;2.70;;;9.80;62.90;;;;;;10485141;28;20577;-78
2021/03/27 23:54:22;;;;;;;4.70;2.70;;;9.70;63.20;;;;;;10501569;28;20226;-77
2021/03/27 23:59:29;;;;;;;6.13;4.00;;;9.60;63.20;;;;;;10508788;28;20219;-77
